sensor_id;sensor_type;location;lat;lon;timestamp;temperature;humidity
29917;DHT22;16786;49.466;11.068;2022-07-23T00:00:30;23.30;99.90
29917;DHT22;16786;49.466;11.068;2022-07-23T00:03:05;23.30;99.90
29917;DHT22;16786;49.466;11.068;2022-07-23T00:05:32;23.30;99.90
29917;DHT22;16786;49.466;11.068;2022-07-23T00:08:01;23.20;99.90
29917;DHT22;16786;49.466;11.068;2022-07-23T00:10:28;23.20;99.90
29917;DHT22;16786;49.466;11.068;2022-07-23T00:12:56;23.10;99.90
29917;DHT22;16786;49.466;11.068;2022-07-23T00:15:23;23.10;99.90
29917;DHT22;16786;49.466;11.068;2022-07-23T00:17:51;23.10;99.90
29917;DHT22;16786;49.466;11.068;2022-07-23T00:20:18;23.10;99.90
29917;DHT22;16786;49.466;11.068;2022-07-23T00:22:50;23.10;99.90
29917;DHT22;16786;49.466;11.068;2022-07-23T00:25:19;23.00;99.90
29917;DHT22;16786;49.466;11.068;2022-07-23T00:28:00;23.00;99.90
29917;DHT22;16786;49.466;11.068;2022-07-23T00:30:29;22.90;99.90
29917;DHT22;16786;49.466;11.068;2022-07-23T00:33:03;22.90;99.90
29917;DHT22;16786;49.466;11.068;2022-07-23T00:35:36;22.80;99.90
29917;DHT22;16786;49.466;11.068;2022-07-23T00:38:04;22.80;99.90
29917;DHT22;16786;49.466;11.068;2022-07-23T00:40:32;22.60;99.90
29917;DHT22;16786;49.466;11.068;2022-07-23T00:43:02;22.50;99.90
29917;DHT22;16786;49.466;11.068;2022-07-23T00:45:30;22.40;99.90
29917;DHT22;16786;49.466;11.068;2022-07-23T00:47:58;22.40;99.90
29917;DHT22;16786;49.466;11.068;2022-07-23T00:50:25;22.30;99.90
29917;DHT22;16786;49.466;11.068;2022-07-23T00:52:53;22.30;99.90
29917;DHT22;16786;49.466;11.068;2022-07-23T00:55:21;22.20;99.90
29917;DHT22;16786;49.466;11.068;2022-07-23T00:57:50;22.10;99.90
29917;DHT22;16786;49.466;11.068;2022-07-23T01:00:17;22.10;99.90
29917;DHT22;16786;49.466;11.068;2022-07-23T01:02:45;22.10;99.90
29917;DHT22;16786;49.466;11.068;2022-07-23T01:05:15;22.10;99.90
29917;DHT22;16786;49.466;11.068;2022-07-23T01:07:42;22.00;99.90
29917;DHT22;16786;49.466;11.068;2022-07-23T01:10:10;21.90;99.90
29917;DHT22;16786;49.466;11.068;2022-07-23T01:12:56;22.00;99.90
29917;DHT22;16786;49.466;11.068;2022-07-23T01:15:24;22.00;99.90
29917;DHT22;16786;49.466;11.068;2022-07-23T01:17:52;22.00;99.90
29917;DHT22;16786;49.466;11.068;2022-07-23T01:20:19;22.00;99.90
29917;DHT22;16786;49.466;11.068;2022-07-23T01:22:47;22.00;99.90
29917;DHT22;16786;49.466;11.068;2022-07-23T01:25:15;22.00;99.90
29917;DHT22;16786;49.466;11.068;2022-07-23T01:27:52;22.10;99.90
29917;DHT22;16786;49.466;11.068;2022-07-23T01:30:20;22.10;99.90
29917;DHT22;16786;49.466;11.068;2022-07-23T01:32:51;22.10;99.90
29917;DHT22;16786;49.466;11.068;2022-07-23T01:35:18;22.10;99.90
29917;DHT22;16786;49.466;11.068;2022-07-23T01:37:47;22.10;99.90
29917;DHT22;16786;49.466;11.068;2022-07-23T01:40:16;22.10;99.90
29917;DHT22;16786;49.466;11.068;2022-07-23T01:42:45;22.10;99.90
29917;DHT22;16786;49.466;11.068;2022-07-23T01:45:13;22.10;99.90
29917;DHT22;16786;49.466;11.068;2022-07-23T01:47:46;22.10;99.90
29917;DHT22;16786;49.466;11.068;2022-07-23T01:50:14;22.20;99.90
29917;DHT22;16786;49.466;11.068;2022-07-23T01:53:17;22.20;99.90
29917;DHT22;16786;49.466;11.068;2022-07-23T01:55:44;22.10;99.90
29917;DHT22;16786;49.466;11.068;2022-07-23T01:58:12;22.10;99.90
29917;DHT22;16786;49.466;11.068;2022-07-23T02:00:39;22.10;99.90
29917;DHT22;16786;49.466;11.068;2022-07-23T02:03:08;22.00;99.90
29917;DHT22;16786;49.466;11.068;2022-07-23T02:05:37;22.00;99.90
29917;DHT22;16786;49.466;11.068;2022-07-23T02:08:04;22.00;99.90
29917;DHT22;16786;49.466;11.068;2022-07-23T02:10:34;22.00;99.90
29917;DHT22;16786;49.466;11.068;2022-07-23T02:13:03;22.00;99.90
29917;DHT22;16786;49.466;11.068;2022-07-23T02:15:30;21.90;99.90
29917;DHT22;16786;49.466;11.068;2022-07-23T02:17:58;21.90;99.90
29917;DHT22;16786;49.466;11.068;2022-07-23T02:20:26;21.90;99.90
29917;DHT22;16786;49.466;11.068;2022-07-23T02:22:53;21.90;99.90
29917;DHT22;16786;49.466;11.068;2022-07-23T02:25:21;21.80;99.90
29917;DHT22;16786;49.466;11.068;2022-07-23T02:27:53;21.80;99.90
29917;DHT22;16786;49.466;11.068;2022-07-23T02:30:21;21.90;99.90
29917;DHT22;16786;49.466;11.068;2022-07-23T02:32:49;21.90;99.90
29917;DHT22;16786;49.466;11.068;2022-07-23T02:35:16;21.90;99.90
29917;DHT22;16786;49.466;11.068;2022-07-23T02:37:43;21.90;99.90
29917;DHT22;16786;49.466;11.068;2022-07-23T02:40:12;22.00;99.90
29917;DHT22;16786;49.466;11.068;2022-07-23T02:42:41;22.00;99.90
29917;DHT22;16786;49.466;11.068;2022-07-23T02:45:09;22.00;99.90
29917;DHT22;16786;49.466;11.068;2022-07-23T02:47:38;22.00;99.90
29917;DHT22;16786;49.466;11.068;2022-07-23T02:50:06;22.00;99.90
29917;DHT22;16786;49.466;11.068;2022-07-23T02:52:38;22.00;99.90
29917;DHT22;16786;49.466;11.068;2022-07-23T02:55:06;22.00;99.90
29917;DHT22;16786;49.466;11.068;2022-07-23T02:57:34;22.00;99.90
29917;DHT22;16786;49.466;11.068;2022-07-23T03:00:05;22.00;99.90
29917;DHT22;16786;49.466;11.068;2022-07-23T03:02:33;22.00;99.90
29917;DHT22;16786;49.466;11.068;2022-07-23T03:05:01;22.00;99.90
29917;DHT22;16786;49.466;11.068;2022-07-23T03:07:29;22.00;99.90
29917;DHT22;16786;49.466;11.068;2022-07-23T03:09:56;22.00;99.90
29917;DHT22;16786;49.466;11.068;2022-07-23T03:12:23;21.90;99.90
29917;DHT22;16786;49.466;11.068;2022-07-23T03:14:51;21.90;99.90
29917;DHT22;16786;49.466;11.068;2022-07-23T03:17:18;21.90;99.90
29917;DHT22;16786;49.466;11.068;2022-07-23T03:19:46;21.80;99.90
29917;DHT22;16786;49.466;11.068;2022-07-23T03:22:14;21.80;99.90
29917;DHT22;16786;49.466;11.068;2022-07-23T03:24:41;21.70;99.90
29917;DHT22;16786;49.466;11.068;2022-07-23T03:27:25;21.70;99.90
29917;DHT22;16786;49.466;11.068;2022-07-23T03:29:56;21.60;99.90
29917;DHT22;16786;49.466;11.068;2022-07-23T03:32:24;21.60;99.90
29917;DHT22;16786;49.466;11.068;2022-07-23T03:34:51;21.60;99.90
29917;DHT22;16786;49.466;11.068;2022-07-23T03:37:19;21.50;99.90
29917;DHT22;16786;49.466;11.068;2022-07-23T03:39:47;21.50;99.90
29917;DHT22;16786;49.466;11.068;2022-07-23T03:42:15;21.50;99.90
29917;DHT22;16786;49.466;11.068;2022-07-23T03:44:45;21.50;99.90
29917;DHT22;16786;49.466;11.068;2022-07-23T03:47:12;21.50;99.90
29917;DHT22;16786;49.466;11.068;2022-07-23T03:49:40;21.40;99.90
29917;DHT22;16786;49.466;11.068;2022-07-23T03:52:08;21.40;99.90
29917;DHT22;16786;49.466;11.068;2022-07-23T03:54:35;21.40;99.90
29917;DHT22;16786;49.466;11.068;2022-07-23T03:57:03;21.30;99.90
29917;DHT22;16786;49.466;11.068;2022-07-23T03:59:32;21.30;99.90
29917;DHT22;16786;49.466;11.068;2022-07-23T04:02:00;21.30;99.90
29917;DHT22;16786;49.466;11.068;2022-07-23T04:04:27;21.30;99.90
29917;DHT22;16786;49.466;11.068;2022-07-23T04:06:55;21.20;99.90
29917;DHT22;16786;49.466;11.068;2022-07-23T04:09:23;21.20;99.90
29917;DHT22;16786;49.466;11.068;2022-07-23T04:11:51;21.20;99.90
29917;DHT22;16786;49.466;11.068;2022-07-23T04:14:19;21.20;99.90
29917;DHT22;16786;49.466;11.068;2022-07-23T04:16:46;21.20;99.90
29917;DHT22;16786;49.466;11.068;2022-07-23T04:19:14;21.20;99.90
29917;DHT22;16786;49.466;11.068;2022-07-23T04:21:53;21.20;99.90
29917;DHT22;16786;49.466;11.068;2022-07-23T04:24:21;21.20;99.90
29917;DHT22;16786;49.466;11.068;2022-07-23T04:26:48;21.20;99.90
29917;DHT22;16786;49.466;11.068;2022-07-23T04:29:15;21.30;99.90
29917;DHT22;16786;49.466;11.068;2022-07-23T04:31:43;21.30;99.90
29917;DHT22;16786;49.466;11.068;2022-07-23T04:34:11;21.30;99.90
29917;DHT22;16786;49.466;11.068;2022-07-23T04:36:38;21.40;99.90
29917;DHT22;16786;49.466;11.068;2022-07-23T04:39:05;21.50;99.90
29917;DHT22;16786;49.466;11.068;2022-07-23T04:41:34;21.50;99.90
29917;DHT22;16786;49.466;11.068;2022-07-23T04:44:02;21.60;99.90
29917;DHT22;16786;49.466;11.068;2022-07-23T04:46:30;21.70;99.90
29917;DHT22;16786;49.466;11.068;2022-07-23T04:48:58;21.80;99.90
29917;DHT22;16786;49.466;11.068;2022-07-23T04:51:26;21.80;99.90
29917;DHT22;16786;49.466;11.068;2022-07-23T04:53:54;21.90;99.90
29917;DHT22;16786;49.466;11.068;2022-07-23T04:56:21;21.90;99.90
29917;DHT22;16786;49.466;11.068;2022-07-23T04:58:49;22.00;99.90
29917;DHT22;16786;49.466;11.068;2022-07-23T05:01:17;22.10;99.90
29917;DHT22;16786;49.466;11.068;2022-07-23T05:03:45;22.20;99.90
29917;DHT22;16786;49.466;11.068;2022-07-23T05:06:12;22.20;99.90
29917;DHT22;16786;49.466;11.068;2022-07-23T05:08:39;22.30;99.90
29917;DHT22;16786;49.466;11.068;2022-07-23T05:11:09;22.30;99.90
29917;DHT22;16786;49.466;11.068;2022-07-23T05:13:36;22.40;99.90
29917;DHT22;16786;49.466;11.068;2022-07-23T05:16:06;22.50;99.90
29917;DHT22;16786;49.466;11.068;2022-07-23T05:18:35;22.50;99.90
29917;DHT22;16786;49.466;11.068;2022-07-23T05:21:02;22.60;99.90
29917;DHT22;16786;49.466;11.068;2022-07-23T05:23:30;22.70;99.90
29917;DHT22;16786;49.466;11.068;2022-07-23T05:25:57;22.70;99.90
29917;DHT22;16786;49.466;11.068;2022-07-23T05:28:25;22.90;99.90
29917;DHT22;16786;49.466;11.068;2022-07-23T05:30:53;23.00;99.90
29917;DHT22;16786;49.466;11.068;2022-07-23T05:33:22;23.00;99.90
29917;DHT22;16786;49.466;11.068;2022-07-23T05:35:49;23.00;99.90
29917;DHT22;16786;49.466;11.068;2022-07-23T05:38:32;23.10;99.90
29917;DHT22;16786;49.466;11.068;2022-07-23T05:41:01;23.20;99.90
29917;DHT22;16786;49.466;11.068;2022-07-23T05:43:29;23.40;99.90
29917;DHT22;16786;49.466;11.068;2022-07-23T05:46:00;23.60;99.90
29917;DHT22;16786;49.466;11.068;2022-07-23T05:48:29;23.70;99.90
29917;DHT22;16786;49.466;11.068;2022-07-23T05:51:01;23.80;99.90
29917;DHT22;16786;49.466;11.068;2022-07-23T05:53:32;23.90;99.90
29917;DHT22;16786;49.466;11.068;2022-07-23T05:56:06;24.00;99.90
29917;DHT22;16786;49.466;11.068;2022-07-23T05:58:33;24.10;99.90
29917;DHT22;16786;49.466;11.068;2022-07-23T06:01:01;24.10;99.90
29917;DHT22;16786;49.466;11.068;2022-07-23T06:03:34;24.20;99.90
29917;DHT22;16786;49.466;11.068;2022-07-23T06:06:01;24.00;99.90
29917;DHT22;16786;49.466;11.068;2022-07-23T06:08:29;24.00;99.90
29917;DHT22;16786;49.466;11.068;2022-07-23T06:10:56;23.90;99.90
29917;DHT22;16786;49.466;11.068;2022-07-23T06:13:23;23.80;99.90
29917;DHT22;16786;49.466;11.068;2022-07-23T06:15:51;23.80;99.90
29917;DHT22;16786;49.466;11.068;2022-07-23T06:18:19;23.80;99.90
29917;DHT22;16786;49.466;11.068;2022-07-23T06:20:46;23.90;99.90
29917;DHT22;16786;49.466;11.068;2022-07-23T06:23:17;23.90;99.90
29917;DHT22;16786;49.466;11.068;2022-07-23T06:25:44;24.00;99.90
29917;DHT22;16786;49.466;11.068;2022-07-23T06:28:12;24.10;99.90
29917;DHT22;16786;49.466;11.068;2022-07-23T06:30:41;24.20;99.90
29917;DHT22;16786;49.466;11.068;2022-07-23T06:33:09;24.20;99.90
29917;DHT22;16786;49.466;11.068;2022-07-23T06:35:38;24.30;99.90
29917;DHT22;16786;49.466;11.068;2022-07-23T06:38:07;24.20;99.90
29917;DHT22;16786;49.466;11.068;2022-07-23T06:40:34;24.30;99.90
29917;DHT22;16786;49.466;11.068;2022-07-23T06:43:02;24.40;99.90
29917;DHT22;16786;49.466;11.068;2022-07-23T06:45:33;24.50;99.90
29917;DHT22;16786;49.466;11.068;2022-07-23T06:48:00;24.60;99.90
29917;DHT22;16786;49.466;11.068;2022-07-23T06:50:29;24.70;99.90
29917;DHT22;16786;49.466;11.068;2022-07-23T06:52:56;24.90;99.90
29917;DHT22;16786;49.466;11.068;2022-07-23T06:55:24;25.20;99.90
29917;DHT22;16786;49.466;11.068;2022-07-23T06:57:51;25.40;99.90
29917;DHT22;16786;49.466;11.068;2022-07-23T07:00:18;25.50;99.90
29917;DHT22;16786;49.466;11.068;2022-07-23T07:02:46;25.60;99.90
29917;DHT22;16786;49.466;11.068;2022-07-23T07:05:14;25.50;99.90
29917;DHT22;16786;49.466;11.068;2022-07-23T07:07:41;25.60;99.90
29917;DHT22;16786;49.466;11.068;2022-07-23T07:10:09;25.60;99.90
29917;DHT22;16786;49.466;11.068;2022-07-23T07:12:42;25.50;99.90
29917;DHT22;16786;49.466;11.068;2022-07-23T07:15:09;25.70;99.90
29917;DHT22;16786;49.466;11.068;2022-07-23T07:17:37;25.80;99.90
29917;DHT22;16786;49.466;11.068;2022-07-23T07:20:05;25.80;99.90
29917;DHT22;16786;49.466;11.068;2022-07-23T07:22:32;25.90;99.90
29917;DHT22;16786;49.466;11.068;2022-07-23T07:25:00;25.90;99.90
29917;DHT22;16786;49.466;11.068;2022-07-23T07:27:27;25.70;99.90
29917;DHT22;16786;49.466;11.068;2022-07-23T07:29:54;25.60;99.90
29917;DHT22;16786;49.466;11.068;2022-07-23T07:32:22;25.60;99.90
29917;DHT22;16786;49.466;11.068;2022-07-23T07:35:09;25.50;99.90
29917;DHT22;16786;49.466;11.068;2022-07-23T07:37:37;25.40;99.90
29917;DHT22;16786;49.466;11.068;2022-07-23T07:40:05;25.40;99.90
29917;DHT22;16786;49.466;11.068;2022-07-23T07:42:32;25.40;99.90
29917;DHT22;16786;49.466;11.068;2022-07-23T07:45:00;25.50;99.90
29917;DHT22;16786;49.466;11.068;2022-07-23T07:47:27;25.50;99.90
29917;DHT22;16786;49.466;11.068;2022-07-23T07:49:55;25.50;99.90
29917;DHT22;16786;49.466;11.068;2022-07-23T07:52:24;25.30;99.90
29917;DHT22;16786;49.466;11.068;2022-07-23T07:54:51;25.10;99.90
29917;DHT22;16786;49.466;11.068;2022-07-23T07:57:19;24.90;99.90
29917;DHT22;16786;49.466;11.068;2022-07-23T07:59:46;24.60;99.90
29917;DHT22;16786;49.466;11.068;2022-07-23T08:02:20;24.50;99.90
29917;DHT22;16786;49.466;11.068;2022-07-23T08:04:48;24.30;99.90
29917;DHT22;16786;49.466;11.068;2022-07-23T08:07:16;24.20;99.90
29917;DHT22;16786;49.466;11.068;2022-07-23T08:09:43;24.20;99.90
29917;DHT22;16786;49.466;11.068;2022-07-23T08:12:10;24.40;99.90
29917;DHT22;16786;49.466;11.068;2022-07-23T08:14:38;24.40;99.90
29917;DHT22;16786;49.466;11.068;2022-07-23T08:17:05;24.50;99.90
29917;DHT22;16786;49.466;11.068;2022-07-23T08:19:41;24.60;99.90
29917;DHT22;16786;49.466;11.068;2022-07-23T08:22:09;24.50;99.90
29917;DHT22;16786;49.466;11.068;2022-07-23T08:24:36;24.50;99.90
29917;DHT22;16786;49.466;11.068;2022-07-23T08:27:03;24.60;99.90
29917;DHT22;16786;49.466;11.068;2022-07-23T08:29:31;24.70;99.90
29917;DHT22;16786;49.466;11.068;2022-07-23T08:31:58;24.70;99.90
29917;DHT22;16786;49.466;11.068;2022-07-23T08:34:40;24.30;99.90
29917;DHT22;16786;49.466;11.068;2022-07-23T08:37:10;24.20;99.90
29917;DHT22;16786;49.466;11.068;2022-07-23T08:39:37;24.10;99.90
29917;DHT22;16786;49.466;11.068;2022-07-23T08:42:05;24.00;99.90
29917;DHT22;16786;49.466;11.068;2022-07-23T08:44:35;23.80;99.90
29917;DHT22;16786;49.466;11.068;2022-07-23T08:47:02;23.70;99.90
29917;DHT22;16786;49.466;11.068;2022-07-23T08:49:30;23.50;99.90
29917;DHT22;16786;49.466;11.068;2022-07-23T08:51:58;23.40;99.90
29917;DHT22;16786;49.466;11.068;2022-07-23T08:54:26;23.30;99.90
29917;DHT22;16786;49.466;11.068;2022-07-23T08:56:53;23.10;99.90
29917;DHT22;16786;49.466;11.068;2022-07-23T08:59:20;23.20;99.90
29917;DHT22;16786;49.466;11.068;2022-07-23T09:01:48;23.00;99.90
29917;DHT22;16786;49.466;11.068;2022-07-23T09:04:15;22.90;99.90
29917;DHT22;16786;49.466;11.068;2022-07-23T09:06:43;22.80;99.90
29917;DHT22;16786;49.466;11.068;2022-07-23T09:09:18;22.70;99.90
29917;DHT22;16786;49.466;11.068;2022-07-23T09:11:47;22.70;99.90
29917;DHT22;16786;49.466;11.068;2022-07-23T09:14:15;22.70;99.90
29917;DHT22;16786;49.466;11.068;2022-07-23T09:16:42;22.60;99.90
29917;DHT22;16786;49.466;11.068;2022-07-23T09:19:11;22.60;99.90
29917;DHT22;16786;49.466;11.068;2022-07-23T09:21:40;22.50;99.90
29917;DHT22;16786;49.466;11.068;2022-07-23T09:24:09;22.30;99.90
29917;DHT22;16786;49.466;11.068;2022-07-23T09:26:41;22.30;99.90
29917;DHT22;16786;49.466;11.068;2022-07-23T09:34:18;22.20;99.90
29917;DHT22;16786;49.466;11.068;2022-07-23T09:36:47;22.10;99.90
29917;DHT22;16786;49.466;11.068;2022-07-23T09:39:25;22.10;99.90
29917;DHT22;16786;49.466;11.068;2022-07-23T09:41:53;21.90;99.90
29917;DHT22;16786;49.466;11.068;2022-07-23T09:44:21;21.70;99.90
29917;DHT22;16786;49.466;11.068;2022-07-23T09:46:58;21.50;99.90
29917;DHT22;16786;49.466;11.068;2022-07-23T09:49:27;21.50;99.90
29917;DHT22;16786;49.466;11.068;2022-07-23T09:52:00;21.30;99.90
29917;DHT22;16786;49.466;11.068;2022-07-23T09:54:31;21.00;99.90
29917;DHT22;16786;49.466;11.068;2022-07-23T09:57:03;20.90;99.90
29917;DHT22;16786;49.466;11.068;2022-07-23T09:59:34;20.90;99.90
29917;DHT22;16786;49.466;11.068;2022-07-23T10:02:02;20.70;99.90
29917;DHT22;16786;49.466;11.068;2022-07-23T10:04:35;20.70;99.90
29917;DHT22;16786;49.466;11.068;2022-07-23T10:07:17;20.70;99.90
29917;DHT22;16786;49.466;11.068;2022-07-23T10:10:04;20.70;99.90
29917;DHT22;16786;49.466;11.068;2022-07-23T10:12:44;20.60;99.90
29917;DHT22;16786;49.466;11.068;2022-07-23T10:15:12;20.50;99.90
29917;DHT22;16786;49.466;11.068;2022-07-23T10:17:39;20.50;99.90
29917;DHT22;16786;49.466;11.068;2022-07-23T10:20:07;20.60;99.90
29917;DHT22;16786;49.466;11.068;2022-07-23T10:22:42;20.30;99.90
29917;DHT22;16786;49.466;11.068;2022-07-23T10:25:28;20.30;99.90
29917;DHT22;16786;49.466;11.068;2022-07-23T10:34:14;20.70;99.90
29917;DHT22;16786;49.466;11.068;2022-07-23T10:36:52;21.00;99.90
29917;DHT22;16786;49.466;11.068;2022-07-23T10:39:32;21.30;99.90
29917;DHT22;16786;49.466;11.068;2022-07-23T10:42:14;21.60;99.90
29917;DHT22;16786;49.466;11.068;2022-07-23T10:44:47;21.80;99.90
29917;DHT22;16786;49.466;11.068;2022-07-23T10:47:30;21.80;99.90
29917;DHT22;16786;49.466;11.068;2022-07-23T10:50:27;21.90;99.90
29917;DHT22;16786;49.466;11.068;2022-07-23T10:58:05;22.00;99.90
29917;DHT22;16786;49.466;11.068;2022-07-23T11:00:35;22.10;99.90
29917;DHT22;16786;49.466;11.068;2022-07-23T11:03:04;22.00;99.90
29917;DHT22;16786;49.466;11.068;2022-07-23T11:05:45;22.10;99.90
29917;DHT22;16786;49.466;11.068;2022-07-23T11:08:15;22.20;99.90
29917;DHT22;16786;49.466;11.068;2022-07-23T11:10:44;22.20;99.90
29917;DHT22;16786;49.466;11.068;2022-07-23T11:27:01;22.70;99.90
29917;DHT22;16786;49.466;11.068;2022-07-23T11:32:06;23.10;99.90
29917;DHT22;16786;49.466;11.068;2022-07-23T11:37:10;23.30;99.90
29917;DHT22;16786;49.466;11.068;2022-07-23T11:39:38;23.40;99.90
29917;DHT22;16786;49.466;11.068;2022-07-23T11:42:07;23.50;99.90
29917;DHT22;16786;49.466;11.068;2022-07-23T11:44:37;23.70;99.90
29917;DHT22;16786;49.466;11.068;2022-07-23T11:47:11;24.00;99.90
29917;DHT22;16786;49.466;11.068;2022-07-23T11:50:02;24.10;99.90
29917;DHT22;16786;49.466;11.068;2022-07-23T11:52:30;24.40;99.90
29917;DHT22;16786;49.466;11.068;2022-07-23T11:55:09;24.90;99.90
29917;DHT22;16786;49.466;11.068;2022-07-23T11:57:39;25.60;99.90
29917;DHT22;16786;49.466;11.068;2022-07-23T12:00:11;25.90;99.90
29917;DHT22;16786;49.466;11.068;2022-07-23T12:02:43;26.30;99.90
29917;DHT22;16786;49.466;11.068;2022-07-23T12:05:22;27.20;99.90
29917;DHT22;16786;49.466;11.068;2022-07-23T12:07:52;27.20;99.90
29917;DHT22;16786;49.466;11.068;2022-07-23T12:12:53;27.80;99.90
29917;DHT22;16786;49.466;11.068;2022-07-23T12:15:27;27.80;99.90
29917;DHT22;16786;49.466;11.068;2022-07-23T12:17:56;27.60;99.90
29917;DHT22;16786;49.466;11.068;2022-07-23T12:20:25;27.80;99.90
29917;DHT22;16786;49.466;11.068;2022-07-23T12:22:57;28.60;99.90
29917;DHT22;16786;49.466;11.068;2022-07-23T12:25:28;29.00;99.90
29917;DHT22;16786;49.466;11.068;2022-07-23T12:30:52;30.00;99.90
29917;DHT22;16786;49.466;11.068;2022-07-23T12:33:31;30.20;99.90
29917;DHT22;16786;49.466;11.068;2022-07-23T12:36:01;30.00;99.90
29917;DHT22;16786;49.466;11.068;2022-07-23T12:38:43;29.80;99.90
29917;DHT22;16786;49.466;11.068;2022-07-23T12:41:11;29.50;99.90
29917;DHT22;16786;49.466;11.068;2022-07-23T12:43:43;29.80;99.90
29917;DHT22;16786;49.466;11.068;2022-07-23T12:46:14;30.10;99.90
29917;DHT22;16786;49.466;11.068;2022-07-23T12:51:29;30.10;99.90
29917;DHT22;16786;49.466;11.068;2022-07-23T12:54:06;30.70;99.90
29917;DHT22;16786;49.466;11.068;2022-07-23T12:56:39;30.60;99.90
29917;DHT22;16786;49.466;11.068;2022-07-23T12:59:15;30.90;99.90
29917;DHT22;16786;49.466;11.068;2022-07-23T13:01:55;31.60;99.90
29917;DHT22;16786;49.466;11.068;2022-07-23T13:04:26;32.10;99.90
29917;DHT22;16786;49.466;11.068;2022-07-23T13:07:01;32.00;99.90
29917;DHT22;16786;49.466;11.068;2022-07-23T13:09:32;32.40;99.90
29917;DHT22;16786;49.466;11.068;2022-07-23T13:12:08;32.80;99.90
29917;DHT22;16786;49.466;11.068;2022-07-23T13:14:38;33.00;99.90
29917;DHT22;16786;49.466;11.068;2022-07-23T13:17:09;34.10;99.90
29917;DHT22;16786;49.466;11.068;2022-07-23T13:19:37;34.50;99.90
29917;DHT22;16786;49.466;11.068;2022-07-23T13:22:05;34.30;99.90
29917;DHT22;16786;49.466;11.068;2022-07-23T13:24:52;35.00;99.90
29917;DHT22;16786;49.466;11.068;2022-07-23T13:27:21;35.00;99.90
29917;DHT22;16786;49.466;11.068;2022-07-23T13:29:50;34.00;99.90
29917;DHT22;16786;49.466;11.068;2022-07-23T13:32:20;33.40;99.90
29917;DHT22;16786;49.466;11.068;2022-07-23T13:34:48;33.50;99.90
29917;DHT22;16786;49.466;11.068;2022-07-23T13:37:18;33.40;99.90
29917;DHT22;16786;49.466;11.068;2022-07-23T13:39:45;32.90;99.90
29917;DHT22;16786;49.466;11.068;2022-07-23T13:42:13;33.30;99.90
29917;DHT22;16786;49.466;11.068;2022-07-23T13:44:41;33.40;99.90
29917;DHT22;16786;49.466;11.068;2022-07-23T13:47:11;33.70;99.90
29917;DHT22;16786;49.466;11.068;2022-07-23T13:49:40;33.20;99.90
29917;DHT22;16786;49.466;11.068;2022-07-23T13:52:08;33.20;99.90
29917;DHT22;16786;49.466;11.068;2022-07-23T13:54:36;33.70;99.90
29917;DHT22;16786;49.466;11.068;2022-07-23T13:57:05;33.40;99.90
29917;DHT22;16786;49.466;11.068;2022-07-23T13:59:33;32.90;99.90
29917;DHT22;16786;49.466;11.068;2022-07-23T14:02:02;32.10;99.90
29917;DHT22;16786;49.466;11.068;2022-07-23T14:04:48;32.10;99.90
29917;DHT22;16786;49.466;11.068;2022-07-23T14:07:17;32.30;99.90
29917;DHT22;16786;49.466;11.068;2022-07-23T14:09:46;34.30;99.90
29917;DHT22;16786;49.466;11.068;2022-07-23T14:12:14;35.90;99.90
29917;DHT22;16786;49.466;11.068;2022-07-23T14:14:44;36.00;99.40
29917;DHT22;16786;49.466;11.068;2022-07-23T14:17:12;35.20;99.20
29917;DHT22;16786;49.466;11.068;2022-07-23T14:19:40;34.60;98.90
29917;DHT22;16786;49.466;11.068;2022-07-23T14:22:08;34.70;99.30
29917;DHT22;16786;49.466;11.068;2022-07-23T14:24:36;34.80;98.30
29917;DHT22;16786;49.466;11.068;2022-07-23T14:27:04;34.00;99.60
29917;DHT22;16786;49.466;11.068;2022-07-23T14:29:32;33.20;99.50
29917;DHT22;16786;49.466;11.068;2022-07-23T14:32:01;32.80;99.90
29917;DHT22;16786;49.466;11.068;2022-07-23T14:34:29;31.80;99.90
29917;DHT22;16786;49.466;11.068;2022-07-23T14:36:57;31.30;99.90
29917;DHT22;16786;49.466;11.068;2022-07-23T14:39:24;30.80;99.90
29917;DHT22;16786;49.466;11.068;2022-07-23T14:41:53;30.30;99.90
29917;DHT22;16786;49.466;11.068;2022-07-23T14:44:21;30.20;99.90
29917;DHT22;16786;49.466;11.068;2022-07-23T14:46:48;30.60;99.90
29917;DHT22;16786;49.466;11.068;2022-07-23T14:49:16;32.80;99.90
29917;DHT22;16786;49.466;11.068;2022-07-23T14:51:44;34.70;99.90
29917;DHT22;16786;49.466;11.068;2022-07-23T14:54:11;36.10;97.80
29917;DHT22;16786;49.466;11.068;2022-07-23T14:56:40;36.40;95.90
29917;DHT22;16786;49.466;11.068;2022-07-23T14:59:08;35.90;96.20
29917;DHT22;16786;49.466;11.068;2022-07-23T15:01:35;35.20;97.00
29917;DHT22;16786;49.466;11.068;2022-07-23T15:04:04;35.10;96.30
29917;DHT22;16786;49.466;11.068;2022-07-23T15:06:52;34.40;96.10
29917;DHT22;16786;49.466;11.068;2022-07-23T15:09:19;34.20;94.10
29917;DHT22;16786;49.466;11.068;2022-07-23T15:11:47;34.20;94.10
29917;DHT22;16786;49.466;11.068;2022-07-23T15:14:15;34.00;95.00
29917;DHT22;16786;49.466;11.068;2022-07-23T15:16:55;32.40;95.10
29917;DHT22;16786;49.466;11.068;2022-07-23T15:19:23;32.20;95.50
29917;DHT22;16786;49.466;11.068;2022-07-23T15:21:50;31.50;95.50
29917;DHT22;16786;49.466;11.068;2022-07-23T15:24:17;31.90;96.00
29917;DHT22;16786;49.466;11.068;2022-07-23T15:26:45;32.10;95.10
29917;DHT22;16786;49.466;11.068;2022-07-23T15:29:12;32.40;94.30
29917;DHT22;16786;49.466;11.068;2022-07-23T15:31:40;32.90;94.00
29917;DHT22;16786;49.466;11.068;2022-07-23T15:34:07;32.60;93.60
29917;DHT22;16786;49.466;11.068;2022-07-23T15:36:34;32.70;93.20
29917;DHT22;16786;49.466;11.068;2022-07-23T15:39:03;33.90;92.70
29917;DHT22;16786;49.466;11.068;2022-07-23T15:41:31;35.50;90.40
29917;DHT22;16786;49.466;11.068;2022-07-23T15:43:59;36.70;83.50
29917;DHT22;16786;49.466;11.068;2022-07-23T15:46:47;37.20;82.50
29917;DHT22;16786;49.466;11.068;2022-07-23T15:49:14;39.00;78.10
29917;DHT22;16786;49.466;11.068;2022-07-23T15:51:45;38.80;74.30
29917;DHT22;16786;49.466;11.068;2022-07-23T15:54:14;37.60;74.40
29917;DHT22;16786;49.466;11.068;2022-07-23T15:56:42;36.90;75.90
29917;DHT22;16786;49.466;11.068;2022-07-23T15:59:10;35.70;78.20
29917;DHT22;16786;49.466;11.068;2022-07-23T16:01:37;36.20;77.90
29917;DHT22;16786;49.466;11.068;2022-07-23T16:04:05;35.50;78.70
29917;DHT22;16786;49.466;11.068;2022-07-23T16:06:34;34.30;81.40
29917;DHT22;16786;49.466;11.068;2022-07-23T16:09:02;33.50;84.80
29917;DHT22;16786;49.466;11.068;2022-07-23T16:11:31;32.60;87.90
29917;DHT22;16786;49.466;11.068;2022-07-23T16:13:59;32.40;89.90